Time;durP1;ratioP1;P1;durP2;ratioP2;P2;SDS_P1;SDS_P2;PMS_P1;PMS_P2;Temp;Humidity;BMP_temperature;BMP_pressure;BME280_temperature;BME280_humidity;BME280_pressure;Samples;Min_cycle;Max_cycle;Signal;HPM_P1;HPM_P2
2022/01/11 00:00:41;;;;;;;21.30;14.03;;;;;;;0.36;100.00;97487.34;5076700;28;20431;-76
2022/01/11 00:03:13;;;;;;;22.63;12.70;;;;;;;0.37;100.00;97501.94;5075640;28;20958;-76
2022/01/11 00:08:11;;;;;;;19.97;12.67;;;;;;;0.42;100.00;97509.84;5074523;28;20447;-76
2022/01/11 00:10:48;;;;;;;16.33;10.50;;;;;;;0.35;100.00;97505.81;5075947;28;20424;-76
2022/01/11 00:13:20;;;;;;;20.53;11.13;;;;;;;-0.12;100.00;97433.94;5074303;28;20432;-76
2022/01/11 00:15:48;;;;;;;19.47;12.70;;;;;;;0.31;100.00;97508.06;5074820;28;20852;-76
2022/01/11 00:18:15;;;;;;;21.07;12.30;;;;;;;0.03;100.00;97456.06;5077956;28;20866;-76
2022/01/11 00:20:42;;;;;;;26.10;12.70;;;;;;;0.26;100.00;97495.75;5073227;28;21000;-76
2022/01/11 00:25:39;;;;;;;22.17;11.93;;;;;;;0.45;100.00;97521.59;5073090;28;20491;-76
2022/01/11 00:28:07;;;;;;;12.43;11.03;;;;;;;0.36;100.00;97515.97;5073381;28;20476;-76
2022/01/11 00:30:41;;;;;;;18.53;11.87;;;;;;;0.39;100.00;97520.69;5073441;28;20460;-76
2022/01/11 00:33:13;;;;;;;15.77;11.50;;;;;;;0.40;100.00;97513.69;5075739;28;20436;-76
2022/01/11 00:35:45;;;;;;;22.73;13.40;;;;;;;0.32;100.00;97514.06;5056078;28;20440;-76
2022/01/11 00:38:16;;;;;;;19.23;13.00;;;;;;;0.35;100.00;97521.41;5074575;28;20988;-76
2022/01/11 00:40:49;;;;;;;20.50;14.03;;;;;;;0.05;100.00;97480.78;5075268;28;20425;-75
2022/01/11 00:43:18;;;;;;;18.77;13.47;;;;;;;0.27;100.00;97522.56;5074697;28;20417;-74
2022/01/11 00:45:46;;;;;;;19.77;12.80;;;;;;;0.39;100.00;97520.69;5072261;28;20480;-75
2022/01/11 00:48:13;;;;;;;18.70;12.67;;;;;;;-0.10;100.00;97460.47;5074218;28;20448;-76
2022/01/11 00:50:40;;;;;;;15.93;11.53;;;;;;;0.20;100.00;97509.69;5072519;28;20472;-76
2022/01/11 00:53:08;;;;;;;20.27;11.03;;;;;;;0.14;100.00;97494.22;5073919;28;20469;-76
2022/01/11 00:55:37;;;;;;;18.50;11.17;;;;;;;0.20;100.00;97514.88;5073258;28;20441;-77
2022/01/11 00:58:05;;;;;;;23.37;13.73;;;;;;;0.40;100.00;97530.13;5057644;28;21046;-75
2022/01/11 01:00:34;;;;;;;17.03;11.43;;;;;;;0.39;100.00;97535.53;5071814;28;20487;-75
2022/01/11 01:03:02;;;;;;;17.00;10.60;;;;;;;0.17;100.00;97501.56;5056236;28;20469;-75
2022/01/11 01:05:29;;;;;;;24.17;12.97;;;;;;;0.18;100.00;97500.53;5071925;28;20943;-76
2022/01/11 01:07:59;;;;;;;17.57;13.00;;;;;;;0.44;100.00;97538.25;5073561;28;21048;-76
2022/01/11 01:10:39;;;;;;;17.07;12.33;;;;;;;0.15;100.00;97507.00;5073131;28;20471;-76
2022/01/11 01:13:13;;;;;;;18.57;12.33;;;;;;;0.02;100.00;97499.44;5073289;28;20456;-76
2022/01/11 01:15:47;;;;;;;18.83;12.20;;;;;;;0.37;100.00;97546.16;5072025;28;20506;-76
2022/01/11 01:18:25;;;;;;;24.80;13.27;;;;;;;0.35;100.00;97543.00;5072980;28;20448;-76
2022/01/11 01:20:53;;;;;;;20.73;12.83;;;;;;;0.13;100.00;97518.63;5074092;28;20505;-76
2022/01/11 01:23:22;;;;;;;16.30;12.13;;;;;;;0.35;100.00;97552.63;5056984;28;20445;-76
2022/01/11 01:25:50;;;;;;;17.60;10.90;;;;;;;0.35;100.00;97548.22;5055224;28;20490;-76
2022/01/11 01:28:17;;;;;;;18.90;12.57;;;;;;;-0.03;100.00;97496.72;5073406;28;20444;-76
2022/01/11 01:30:46;;;;;;;18.53;12.67;;;;;;;0.35;100.00;97558.59;5056495;28;20489;-75
2022/01/11 01:33:14;;;;;;;22.00;12.73;;;;;;;0.05;100.00;97509.38;5073518;28;20518;-74
2022/01/11 01:35:44;;;;;;;19.57;12.20;;;;;;;0.35;100.00;97557.81;5071700;28;20523;-75
2022/01/11 01:38:11;;;;;;;15.63;11.00;;;;;;;0.08;100.00;97528.94;5056327;28;20429;-75
2022/01/11 01:40:44;;;;;;;19.50;13.33;;;;;;;0.37;100.00;97553.97;5072266;28;20432;-75
2022/01/11 01:43:12;;;;;;;22.33;12.00;;;;;;;0.36;100.00;97570.59;5073868;28;20413;-75
2022/01/11 01:45:43;;;;;;;17.30;12.70;;;;;;;0.27;100.00;97556.38;5056683;28;20472;-75
2022/01/11 01:48:15;;;;;;;20.80;13.43;;;;;;;0.26;100.00;97557.38;5057429;28;20443;-75
2022/01/11 01:50:43;;;;;;;19.27;14.43;;;;;;;-0.02;100.00;97514.69;5054341;28;20436;-75
2022/01/11 01:53:12;;;;;;;24.27;14.47;;;;;;;0.29;100.00;97570.72;5074048;28;20467;-75
2022/01/11 01:55:44;;;;;;;25.70;15.30;;;;;;;0.24;100.00;97568.00;5070994;28;20442;-75
2022/01/11 01:58:13;;;;;;;30.20;15.93;;;;;;;-0.02;100.00;97540.69;5072464;28;20947;-75
2022/01/11 02:00:44;;;;;;;28.77;16.40;;;;;;;0.01;100.00;97542.06;5054304;28;20502;-75
2022/01/11 02:03:14;;;;;;;24.27;15.93;;;;;;;0.12;100.00;97566.44;5072138;28;20437;-75
2022/01/11 02:05:42;;;;;;;23.87;14.47;;;;;;;-0.05;100.00;97541.16;5071525;28;20468;-75
2022/01/11 02:08:10;;;;;;;28.53;17.17;;;;;;;0.10;100.00;97571.88;5073409;28;20432;-72
2022/01/11 02:10:38;;;;;;;25.40;14.73;;;;;;;0.06;100.00;97556.97;5071431;28;20448;-74
2022/01/11 02:13:08;;;;;;;23.47;17.30;;;;;;;0.16;100.00;97578.00;5055510;28;20460;-74
2022/01/11 02:15:37;;;;;;;29.77;16.23;;;;;;;0.15;100.00;97571.22;5055193;28;20498;-74
2022/01/11 02:18:09;;;;;;;20.80;14.80;;;;;;;-0.07;100.00;97538.00;5056800;28;20436;-74
2022/01/11 02:20:38;;;;;;;27.20;17.00;;;;;;;0.02;100.00;97556.66;5071561;28;20867;-74
2022/01/11 02:23:06;;;;;;;25.03;14.20;;;;;;;0.14;100.00;97575.63;5070374;28;20433;-73
2022/01/11 02:25:32;;;;;;;26.37;15.13;;;;;;;0.15;100.00;97576.41;5071732;28;20440;-72
2022/01/11 02:28:00;;;;;;;30.60;14.83;;;;;;;0.14;100.00;97578.22;5071301;28;20467;-73
2022/01/11 02:30:32;;;;;;;29.20;15.70;;;;;;;-0.02;100.00;97555.50;5071481;28;20494;-75
2022/01/11 02:32:59;;;;;;;17.03;14.13;;;;;;;-0.03;100.00;97552.09;5054686;28;20464;-72
2022/01/11 02:35:27;;;;;;;21.60;16.00;;;;;;;0.15;100.00;97585.00;5071191;28;20448;-73
2022/01/11 02:37:57;;;;;;;19.50;14.47;;;;;;;-0.01;100.00;97554.47;5071203;28;20517;-73
2022/01/11 02:40:24;;;;;;;22.03;13.57;;;;;;;0.14;100.00;97582.63;5070562;28;20531;-72
2022/01/11 02:43:11;;;;;;;23.60;13.67;;;;;;;0.02;100.00;97569.63;5073606;28;20448;-73
2022/01/11 02:45:38;;;;;;;26.97;15.63;;;;;;;0.11;100.00;97570.84;4977078;28;20497;-73
2022/01/11 02:48:05;;;;;;;22.10;13.90;;;;;;;0.01;100.00;97554.28;5011203;28;21008;-74
2022/01/11 02:50:34;;;;;;;17.30;12.67;;;;;;;-0.01;100.00;97550.06;4993493;28;20497;-74
2022/01/11 02:53:01;;;;;;;17.03;11.37;;;;;;;0.06;100.00;97562.16;4979053;28;21020;-75
2022/01/11 02:55:28;;;;;;;20.00;14.00;;;;;;;0.07;100.00;97561.94;5009696;28;20461;-75
2022/01/11 02:57:56;;;;;;;20.17;14.07;;;;;;;-0.04;100.00;97541.94;4995067;28;20459;-75
2022/01/11 03:00:27;;;;;;;23.20;15.07;;;;;;;-0.05;100.00;97553.34;5010483;28;20430;-75
2022/01/11 03:02:55;;;;;;;26.37;13.80;;;;;;;0.02;100.00;97579.25;5024588;28;20446;-75
2022/01/11 03:05:25;;;;;;;21.83;14.00;;;;;;;-0.20;100.00;97553.03;4977615;28;20522;-74
2022/01/11 03:07:54;;;;;;;22.07;15.57;;;;;;;-0.06;100.00;97575.97;4976704;28;20950;-74
2022/01/11 03:10:33;;;;;;;19.97;13.80;;;;;;;-0.07;100.00;97571.00;5009382;28;21156;-74
2022/01/11 03:13:05;;;;;;;24.07;15.97;;;;;;;-0.09;100.00;97580.84;4976924;28;21063;-74
2022/01/11 03:15:34;;;;;;;19.20;14.43;;;;;;;-0.15;100.00;97561.72;4992422;28;20435;-74
2022/01/11 03:18:05;;;;;;;19.97;13.80;;;;;;;-0.31;100.00;97529.41;5009240;28;20442;-75
2022/01/11 03:20:38;;;;;;;22.73;15.67;;;;;;;0.07;100.00;97585.34;4977332;28;20989;-75
2022/01/11 03:23:07;;;;;;;24.00;15.60;;;;;;;0.08;100.00;97588.72;5042318;28;20961;-75
2022/01/11 03:25:34;;;;;;;25.03;14.13;;;;;;;-0.05;100.00;97577.53;5069756;28;21315;-75
2022/01/11 03:28:04;;;;;;;24.67;14.63;;;;;;;-0.05;100.00;97590.53;5072250;28;21050;-75
2022/01/11 03:30:32;;;;;;;22.87;15.30;;;;;;;-0.20;100.00;97582.41;5057326;28;20428;-75
2022/01/11 03:33:00;;;;;;;27.23;15.77;;;;;;;-0.19;100.00;97580.59;5073750;28;20460;-73
2022/01/11 03:35:32;;;;;;;22.73;15.27;;;;;;;-0.13;100.00;97585.69;5073473;28;20439;-73
2022/01/11 03:38:00;;;;;;;21.90;13.43;;;;;;;-0.14;100.00;97585.91;5073378;28;21078;-74
2022/01/11 03:40:27;;;;;;;19.90;12.27;;;;;;;-0.15;100.00;97592.91;5056996;28;20440;-74
2022/01/11 03:42:54;;;;;;;19.10;14.13;;;;;;;-0.08;100.00;97590.22;5057086;28;20519;-73
2022/01/11 03:45:21;;;;;;;21.73;13.40;;;;;;;-0.04;100.00;97596.53;5073542;28;20491;-73
2022/01/11 03:47:54;;;;;;;18.27;13.40;;;;;;;-0.11;100.00;97595.88;5057167;28;21013;-74
2022/01/11 03:50:22;;;;;;;22.87;15.00;;;;;;;-0.27;100.00;97563.53;5056878;28;20428;-74
2022/01/11 03:52:58;;;;;;;23.53;14.00;;;;;;;-0.05;100.00;97600.94;5073461;28;20932;-74
2022/01/11 03:55:47;;;;;;;21.70;14.13;;;;;;;-0.12;100.00;97594.28;5073160;28;20997;-74
2022/01/11 03:58:16;;;;;;;21.73;12.90;;;;;;;-0.09;100.00;97597.22;5073480;28;20443;-74
2022/01/11 04:00:44;;;;;;;20.63;12.83;;;;;;;-0.13;100.00;97595.31;5073092;28;20444;-74
2022/01/11 04:03:11;;;;;;;22.53;13.50;;;;;;;-0.13;100.00;97587.50;5073138;28;20436;-74
2022/01/11 04:05:41;;;;;;;21.27;14.87;;;;;;;-0.24;100.00;97586.47;5056389;28;20527;-74
2022/01/11 04:08:09;;;;;;;21.10;14.37;;;;;;;-0.11;100.00;97595.88;5072841;28;20931;-74
2022/01/11 04:10:36;;;;;;;24.10;14.10;;;;;;;-0.20;100.00;97572.00;5073004;28;20783;-73
2022/01/11 04:13:03;;;;;;;24.63;14.90;;;;;;;-0.20;100.00;97577.22;5072815;28;20533;-74
2022/01/11 04:15:30;;;;;;;23.37;14.80;;;;;;;-0.20;100.00;97576.41;5072834;28;20446;-75
2022/01/11 04:17:59;;;;;;;19.87;13.93;;;;;;;-0.08;100.00;97598.78;5072780;28;20460;-74
2022/01/11 04:20:26;;;;;;;21.43;13.40;;;;;;;-0.09;100.00;97594.63;5056149;28;20436;-74
2022/01/11 04:22:53;;;;;;;27.40;14.93;;;;;;;-0.19;100.00;97588.41;5074113;28;20428;-74
2022/01/11 04:25:21;;;;;;;26.07;14.37;;;;;;;-0.16;100.00;97593.13;5072641;28;20513;-74
2022/01/11 04:27:48;;;;;;;22.80;14.10;;;;;;;-0.22;100.00;97589.66;5072775;28;20454;-73
2022/01/11 04:30:14;;;;;;;22.93;14.80;;;;;;;-0.42;100.00;97574.38;5072364;28;20436;-73
2022/01/11 04:32:41;;;;;;;23.30;15.20;;;;;;;-0.44;100.00;97570.41;5072288;28;20450;-74
2022/01/11 04:35:16;;;;;;;27.57;13.50;;;;;;;-0.29;100.00;97601.94;5056863;28;20445;-74
2022/01/11 04:37:45;;;;;;;18.73;12.23;;;;;;;-0.38;100.00;97582.53;5072028;28;20483;-75
2022/01/11 04:40:14;;;;;;;22.20;13.80;;;;;;;-0.44;100.00;97576.41;5072684;28;20439;-74
2022/01/11 04:42:43;;;;;;;18.57;12.10;;;;;;;-0.28;100.00;97595.72;5056449;28;20920;-74
2022/01/11 04:45:12;;;;;;;17.73;12.93;;;;;;;-0.25;100.00;97597.09;5072264;28;20462;-74
2022/01/11 04:47:38;;;;;;;20.60;12.90;;;;;;;-0.15;100.00;97624.09;5055804;28;20463;-75
2022/01/11 04:50:06;;;;;;;17.63;11.90;;;;;;;-0.40;100.00;97585.34;5072470;28;20506;-75
2022/01/11 04:52:34;;;;;;;17.27;12.97;;;;;;;-0.16;100.00;97604.31;5072332;28;20468;-75
2022/01/11 04:55:02;;;;;;;20.60;11.37;;;;;;;-0.13;100.00;97592.72;5072122;28;20809;-74
2022/01/11 04:57:46;;;;;;;17.47;12.10;;;;;;;-0.18;100.00;97585.56;5058067;28;20642;-75
2022/01/11 05:00:16;;;;;;;18.63;12.20;;;;;;;-0.27;100.00;97604.31;5072237;28;20451;-75
2022/01/11 05:02:43;;;;;;;16.27;11.47;;;;;;;-0.14;100.00;97635.28;5055583;28;20975;-75
2022/01/11 05:05:15;;;;;;;22.53;14.47;;;;;;;-0.31;100.00;97609.97;5072410;28;20515;-75
2022/01/11 05:07:45;;;;;;;18.93;12.17;;;;;;;-0.34;100.00;97609.63;5072148;28;20821;-75
2022/01/11 05:10:12;;;;;;;17.70;12.40;;;;;;;-0.13;100.00;97649.88;5071879;28;20932;-75
2022/01/11 05:12:40;;;;;;;22.67;14.17;;;;;;;-0.27;100.00;97617.31;5055596;28;20837;-75
2022/01/11 05:15:09;;;;;;;27.00;15.40;;;;;;;-0.17;100.00;97640.94;5071892;28;20982;-75
2022/01/11 05:17:37;;;;;;;20.60;15.03;;;;;;;-0.11;100.00;97645.25;5071939;28;20456;-75
2022/01/11 05:20:05;;;;;;;22.63;13.00;;;;;;;-0.12;100.00;97652.25;5071871;28;20450;-75
2022/01/11 05:22:33;;;;;;;26.80;14.33;;;;;;;-0.11;100.00;97647.84;5055335;28;20439;-75
2022/01/11 05:25:00;;;;;;;22.70;15.57;;;;;;;-0.33;100.00;97616.41;5071768;28;20502;-75
2022/01/11 05:27:30;;;;;;;20.47;14.90;;;;;;;-0.05;100.00;97652.94;5071535;28;20468;-75
2022/01/11 05:29:57;;;;;;;24.57;14.07;;;;;;;-0.26;100.00;97639.69;5071822;28;20436;-75
2022/01/11 05:32:24;;;;;;;26.43;14.77;;;;;;;-0.31;100.00;97629.97;5071487;28;20509;-75
2022/01/11 05:34:50;;;;;;;23.43;13.60;;;;;;;-0.31;100.00;97629.97;5071452;28;20954;-75
2022/01/11 05:37:17;;;;;;;23.50;15.00;;;;;;;-0.35;100.00;97632.22;5071540;28;20533;-75
2022/01/11 05:39:44;;;;;;;22.73;13.30;;;;;;;-0.53;100.00;97608.94;5071219;28;20447;-75
2022/01/11 05:42:11;;;;;;;25.07;13.87;;;;;;;-0.34;100.00;97639.00;5072621;28;20440;-75
2022/01/11 05:44:38;;;;;;;25.87;14.63;;;;;;;-0.62;100.00;97590.28;5072354;28;20955;-75
2022/01/11 05:47:05;;;;;;;19.43;14.33;;;;;;;-0.40;100.00;97631.28;5071017;28;20490;-75
2022/01/11 05:49:33;;;;;;;27.00;14.77;;;;;;;-0.15;100.00;97668.28;5070395;28;20440;-75
2022/01/11 05:52:00;;;;;;;23.30;15.20;;;;;;;-0.27;100.00;97649.28;5070966;28;20485;-75
2022/01/11 05:54:27;;;;;;;23.83;14.23;;;;;;;-0.32;100.00;97659.56;5071058;28;20464;-75
2022/01/11 05:56:55;;;;;;;20.73;14.47;;;;;;;-0.18;100.00;97673.94;5071362;28;20472;-75
2022/01/11 05:59:22;;;;;;;22.70;13.60;;;;;;;-0.11;100.00;97672.03;5071301;28;20864;-75
2022/01/11 06:02:09;;;;;;;24.63;14.67;;;;;;;-0.39;100.00;97641.50;5070999;28;20471;-75
2022/01/11 06:04:36;;;;;;;27.67;14.73;;;;;;;-0.02;100.00;97677.69;4993829;28;20457;-75
2022/01/11 06:07:03;;;;;;;24.87;15.67;;;;;;;-0.19;100.00;97655.97;4977983;28;20550;-75
2022/01/11 06:09:30;;;;;;;26.70;15.57;;;;;;;-0.19;100.00;97653.38;5010185;28;20457;-75
2022/01/11 06:11:57;;;;;;;17.77;12.60;;;;;;;-0.21;100.00;97666.59;5010342;28;20472;-74
2022/01/11 06:14:24;;;;;;;21.80;13.90;;;;;;;-0.39;100.00;97630.31;4993830;28;21045;-75
2022/01/11 06:16:51;;;;;;;24.47;15.00;;;;;;;-0.04;100.00;97690.91;4993646;28;20473;-74
2022/01/11 06:19:18;;;;;;;33.03;18.77;;;;;;;-0.13;100.00;97692.25;5009881;28;20446;-75
2022/01/11 06:22:00;;;;;;;26.63;14.40;;;;;;;-0.11;100.00;97695.44;4979862;28;20493;-74
2022/01/11 06:24:27;;;;;;;23.27;14.53;;;;;;;-0.18;100.00;97684.31;5009946;28;20427;-75
2022/01/11 06:26:54;;;;;;;25.07;15.67;;;;;;;-0.20;100.00;97675.97;4977591;28;20880;-75
2022/01/11 06:29:21;;;;;;;29.80;16.37;;;;;;;-0.42;100.00;97664.50;5010109;28;20463;-75
2022/01/11 06:31:48;;;;;;;22.30;14.33;;;;;;;-0.19;100.00;97689.75;5010197;28;20471;-74
2022/01/11 06:34:14;;;;;;;23.43;13.53;;;;;;;-0.27;100.00;97666.66;4993515;28;20467;-74
2022/01/11 06:36:41;;;;;;;22.40;13.97;;;;;;;-0.17;100.00;97700.72;5009862;28;20466;-75
2022/01/11 06:39:08;;;;;;;21.37;15.20;;;;;;;-0.46;100.00;97666.75;4993219;28;20821;-75
2022/01/11 06:41:35;;;;;;;24.00;15.57;;;;;;;-0.42;100.00;97686.06;5038422;28;20436;-75
2022/01/11 06:44:06;;;;;;;27.73;17.40;;;;;;;-0.12;100.00;97726.84;5055405;28;20424;-75
2022/01/11 06:46:34;;;;;;;26.83;16.13;;;;;;;-0.25;100.00;97714.03;5054002;28;21089;-75
2022/01/11 06:49:04;;;;;;;27.13;15.73;;;;;;;-0.13;100.00;97736.44;5070377;28;20478;-75
2022/01/11 06:51:31;;;;;;;28.70;16.13;;;;;;;-0.35;100.00;97688.59;5054466;28;20448;-75
2022/01/11 06:53:58;;;;;;;24.13;14.63;;;;;;;-0.46;100.00;97690.13;5070624;28;20905;-75
2022/01/11 06:56:25;;;;;;;24.30;14.80;;;;;;;-0.47;100.00;97690.38;5053822;28;20456;-75
2022/01/11 06:58:59;;;;;;;25.80;16.87;;;;;;;-0.27;100.00;97716.84;5056718;28;20547;-75
2022/01/11 07:01:26;;;;;;;21.67;13.07;;;;;;;-0.29;100.00;97731.84;5070924;28;20462;-75
2022/01/11 07:03:59;;;;;;;25.73;16.30;;;;;;;-0.11;100.00;97762.22;5054505;28;20857;-74
2022/01/11 07:06:28;;;;;;;20.30;15.10;;;;;;;-0.20;100.00;97753.13;5054137;28;20467;-75
2022/01/11 07:08:54;;;;;;;27.53;18.07;;;;;;;-0.16;100.00;97764.66;5053848;28;20451;-75
2022/01/11 07:11:25;;;;;;;27.50;16.80;;;;;;;-0.19;100.00;97762.50;5070142;28;20444;-75
2022/01/11 07:13:54;;;;;;;25.17;14.07;;;;;;;-0.55;100.00;97711.44;5053731;28;20464;-75
2022/01/11 07:16:21;;;;;;;21.57;16.07;;;;;;;-0.49;100.00;97721.75;5054572;28;21030;-75
2022/01/11 07:18:49;;;;;;;21.13;15.57;;;;;;;-0.33;100.00;97752.31;5053806;28;20444;-75
2022/01/11 07:21:16;;;;;;;19.13;14.27;;;;;;;-0.29;100.00;97750.06;5070418;28;20440;-75
2022/01/11 07:23:43;;;;;;;22.70;14.53;;;;;;;-0.20;100.00;97769.53;5069889;28;20429;-75
2022/01/11 07:26:11;;;;;;;30.50;17.93;;;;;;;-0.14;100.00;97783.44;5069857;28;20468;-75
2022/01/11 07:28:38;;;;;;;33.17;19.10;;;;;;;-0.37;100.00;97750.38;5070236;28;20802;-75
2022/01/11 07:31:09;;;;;;;28.70;19.63;;;;;;;-0.10;100.00;97782.00;5069790;28;20816;-74
2022/01/11 07:33:42;;;;;;;26.80;16.50;;;;;;;-0.22;100.00;97768.94;5054210;28;20461;-75
2022/01/11 07:36:10;;;;;;;27.57;16.80;;;;;;;-0.59;100.00;97711.09;5069592;28;20476;-75
2022/01/11 07:38:38;;;;;;;18.63;12.60;;;;;;;-0.30;100.00;97756.25;5069755;28;20859;-75
2022/01/11 07:41:11;;;;;;;22.43;13.00;;;;;;;-0.32;100.00;97761.69;5069845;28;20490;-75
2022/01/11 07:43:47;;;;;;;19.00;13.67;;;;;;;-0.36;100.00;97773.53;5069932;28;20423;-75
2022/01/11 07:46:19;;;;;;;22.70;15.33;;;;;;;-0.13;100.00;97803.22;5069741;28;20468;-75
2022/01/11 07:48:51;;;;;;;22.00;13.83;;;;;;;-0.15;100.00;97800.03;5069916;28;20429;-75
2022/01/11 07:51:18;;;;;;;21.30;13.00;;;;;;;-0.36;100.00;97757.16;5069760;28;20963;-75
2022/01/11 07:53:45;;;;;;;21.73;12.43;;;;;;;-0.45;100.00;97748.88;5069572;28;20513;-75
2022/01/11 07:56:17;;;;;;;21.33;13.23;;;;;;;-0.17;100.00;97776.06;5053756;28;20466;-75
2022/01/11 07:58:44;;;;;;;16.83;12.00;;;;;;;-0.22;100.00;97783.75;5053064;28;20447;-75
2022/01/11 08:01:14;;;;;;;17.83;12.70;;;;;;;-0.11;100.00;97780.41;5054082;28;20505;-75
2022/01/11 08:03:43;;;;;;;25.13;14.70;;;;;;;-0.44;100.00;97736.66;5069609;28;20432;-75
2022/01/11 08:06:15;;;;;;;21.10;14.07;;;;;;;-0.09;100.00;97789.56;5069665;28;20488;-75
2022/01/11 08:08:46;;;;;;;18.40;12.00;;;;;;;-0.20;100.00;97776.53;5053880;28;20432;-75
2022/01/11 08:11:13;;;;;;;15.27;9.17;;;;;;;0.02;100.00;97811.41;5053220;28;20478;-75
2022/01/11 08:13:40;;;;;;;14.53;9.47;;;;;;;-0.11;100.00;97773.41;5071187;28;21029;-75
2022/01/11 08:16:08;;;;;;;16.90;10.07;;;;;;;-0.05;100.00;97784.72;5075222;28;20542;-75
2022/01/11 08:18:35;;;;;;;17.40;9.40;;;;;;;-0.05;100.00;97782.91;5056799;28;20472;-75
2022/01/11 08:21:03;;;;;;;10.70;8.10;;;;;;;-0.13;100.00;97778.03;5056582;28;20455;-75
2022/01/11 08:23:30;;;;;;;10.63;7.63;;;;;;;-0.10;100.00;97784.59;5073083;28;20441;-75
2022/01/11 08:25:59;;;;;;;11.23;7.40;;;;;;;0.17;100.00;97814.41;5056618;28;20497;-75
2022/01/11 08:28:26;;;;;;;10.37;8.47;;;;;;;0.17;100.00;97824.00;5056361;28;20440;-75
2022/01/11 08:30:57;;;;;;;12.10;8.43;;;;;;;0.19;100.00;97808.97;5072986;28;20817;-74
2022/01/11 08:33:27;;;;;;;14.73;8.80;;;;;;;0.21;100.00;97828.53;5072773;28;20543;-75
2022/01/11 08:35:54;;;;;;;14.80;8.07;;;;;;;0.08;100.00;97794.13;5056191;28;20444;-75
2022/01/11 08:38:23;;;;;;;11.63;7.00;;;;;;;0.16;100.00;97791.22;5072809;28;20444;-75
2022/01/11 08:40:51;;;;;;;11.97;6.70;;;;;;;0.11;100.00;97791.88;5056285;28;20962;-75
2022/01/11 08:43:19;;;;;;;10.90;7.10;;;;;;;0.24;100.00;97807.28;5056603;28;20444;-75
2022/01/11 08:45:46;;;;;;;12.00;7.60;;;;;;;0.46;100.00;97819.75;5072449;28;20492;-75
2022/01/11 08:48:16;;;;;;;10.23;7.00;;;;;;;0.36;100.00;97804.69;5072564;28;20490;-75
2022/01/11 08:50:53;;;;;;;8.87;6.97;;;;;;;0.47;100.00;97818.75;5072763;28;20450;-75
2022/01/11 08:53:24;;;;;;;11.63;7.43;;;;;;;0.49;100.00;97814.91;5056344;28;20462;-74
2022/01/11 08:55:52;;;;;;;6.73;5.43;;;;;;;0.30;100.00;97782.19;5072337;28;20472;-75
2022/01/11 08:58:22;;;;;;;9.97;7.03;;;;;;;0.62;100.00;97815.69;5072467;28;20444;-75
2022/01/11 09:00:49;;;;;;;9.50;6.33;;;;;;;0.49;100.00;97809.69;5055993;28;20448;-75
2022/01/11 09:03:17;;;;;;;8.00;5.63;;;;;;;0.58;100.00;97821.38;5055795;28;20497;-75
2022/01/11 09:05:47;;;;;;;7.07;6.07;;;;;;;0.74;100.00;97834.72;5056042;28;20842;-75
2022/01/11 09:08:17;;;;;;;5.80;4.40;;;;;;;0.65;100.00;97828.25;5072269;28;20539;-75
2022/01/11 09:10:45;;;;;;;9.57;6.63;;;;;;;0.48;100.00;97789.91;5072153;28;20445;-74
2022/01/11 09:13:11;;;;;;;9.47;5.80;;;;;;;0.54;100.00;97794.22;5071570;28;20526;-75
2022/01/11 09:15:39;;;;;;;7.00;5.20;;;;;;;0.69;100.00;97819.00;5055442;28;20432;-74
2022/01/11 09:18:07;;;;;;;10.50;6.63;;;;;;;0.69;100.00;97811.19;5071849;28;20448;-75
2022/01/11 09:20:34;;;;;;;8.40;5.33;;;;;;;0.96;100.00;97850.59;5055491;28;20440;-75
2022/01/11 09:23:03;;;;;;;9.80;6.30;;;;;;;0.93;100.00;97851.81;5055149;28;20447;-75
2022/01/11 09:25:33;;;;;;;9.53;5.60;;;;;;;0.73;100.00;97812.31;5055563;28;20804;-75
2022/01/11 09:28:04;;;;;;;14.63;5.07;;;;;;;0.95;100.00;97849.00;5056148;28;20498;-75
2022/01/11 09:30:32;;;;;;;8.10;5.50;;;;;;;0.86;100.00;97846.72;5072096;28;20527;-75
2022/01/11 09:33:00;;;;;;;7.70;4.93;;;;;;;0.64;100.00;97806.66;5055423;28;20476;-75
2022/01/11 09:35:28;;;;;;;6.23;5.60;;;;;;;0.91;100.00;97855.66;5055321;28;20451;-75
2022/01/11 09:38:09;;;;;;;5.47;4.30;;;;;;;0.77;100.00;97821.25;5071590;28;20431;-77
2022/01/11 09:40:35;;;;;;;5.40;3.80;;;;;;;0.92;100.00;97855.44;5071922;28;20460;-76
2022/01/11 09:43:06;;;;;;;10.13;5.70;;;;;;;1.03;100.00;97867.66;5055470;28;20436;-76
2022/01/11 09:45:33;;;;;;;8.93;5.13;;;;;;;1.01;100.00;97861.91;5055070;28;20436;-76
2022/01/11 09:48:01;;;;;;;7.60;4.93;;;;;;;0.62;100.00;97808.69;5055005;28;20463;-77
2022/01/11 09:50:32;;;;;;;6.87;4.10;;;;;;;0.79;100.00;97853.84;5071383;28;20490;-76
2022/01/11 09:53:03;;;;;;;4.37;3.93;;;;;;;0.97;100.00;97866.00;5071222;28;20508;-76
2022/01/11 09:55:34;;;;;;;4.70;4.40;;;;;;;0.94;100.00;97866.44;5055172;28;20846;-76
2022/01/11 09:58:01;;;;;;;6.63;4.40;;;;;;;0.97;100.00;97871.19;5070950;28;20533;-76
2022/01/11 10:01:00;;;;;;;16.33;9.30;;;;;;;0.82;100.00;97857.84;5038263;28;20444;-76
2022/01/11 10:03:59;;;;;;;11.73;7.57;;;;;;;1.01;100.00;97880.13;5071064;28;20446;-76
2022/01/11 10:06:37;;;;;;;9.13;4.83;;;;;;;0.85;100.00;97850.34;5055902;28;20537;-76
2022/01/11 10:09:20;;;;;;;7.40;4.07;;;;;;;0.90;100.00;97870.50;5070880;28;20473;-76
2022/01/11 10:11:53;;;;;;;6.30;4.30;;;;;;;1.01;100.00;97866.31;5054474;28;20439;-76
2022/01/11 10:14:31;;;;;;;14.03;8.30;;;;;;;1.04;100.00;97878.88;5054503;28;20460;-76
2022/01/11 10:17:04;;;;;;;14.07;7.13;;;;;;;1.08;100.00;97882.63;5055099;28;20464;-76
2022/01/11 10:19:31;;;;;;;11.33;6.60;;;;;;;0.81;100.00;97843.22;5071310;28;20440;-76
2022/01/11 10:21:57;;;;;;;4.40;3.97;;;;;;;0.96;100.00;97848.00;5054461;28;20529;-77
2022/01/11 10:24:41;;;;;;;4.43;3.90;;;;;;;1.17;100.00;97869.03;5071290;28;20420;-76
2022/01/11 10:27:15;;;;;;;6.00;4.07;;;;;;;1.08;100.00;97864.41;5070830;28;20463;-77
2022/01/11 10:29:48;;;;;;;5.70;3.90;;;;;;;1.11;100.00;97869.94;5070652;28;21027;-77
2022/01/11 10:32:30;;;;;;;4.60;2.80;;;;;;;1.05;100.00;97862.22;5054607;28;21159;-77
2022/01/11 10:35:19;;;;;;;2.70;2.50;;;;;;;1.11;100.00;97875.16;5055136;28;20470;-77
2022/01/11 10:38:07;;;;;;;3.40;3.13;;;;;;;0.89;100.00;97835.84;5070894;28;20955;-77
2022/01/11 10:40:40;;;;;;;3.17;2.90;;;;;;;0.94;100.00;97845.63;5054466;28;20877;-77
2022/01/11 10:43:11;;;;;;;3.33;2.73;;;;;;;1.11;100.00;97874.38;5054245;28;20436;-77
2022/01/11 10:45:51;;;;;;;2.97;2.67;;;;;;;0.82;100.00;97835.19;5070802;28;21010;-77
2022/01/11 10:48:25;;;;;;;2.77;2.53;;;;;;;1.11;100.00;97885.56;5054633;28;20429;-77
2022/01/11 10:51:01;;;;;;;2.63;2.43;;;;;;;1.10;100.00;97884.00;5070740;28;20436;-77
2022/01/11 10:53:39;;;;;;;3.80;2.43;;;;;;;0.71;100.00;97828.16;5070954;28;20523;-77
2022/01/11 10:56:08;;;;;;;2.57;2.00;;;;;;;0.70;100.00;97838.81;5070894;28;20472;-77
2022/01/11 10:59:08;;;;;;;7.50;3.20;;;;;;;1.07;100.00;97884.44;5070528;28;20475;-77
2022/01/11 11:01:38;;;;;;;3.67;3.00;;;;;;;0.76;100.00;97846.50;5070674;28;20430;-77
2022/01/11 11:04:25;;;;;;;3.20;2.90;;;;;;;0.89;100.00;97861.91;5070827;28;20436;-77
2022/01/11 11:07:09;;;;;;;2.80;2.60;;;;;;;0.55;100.00;97800.22;5072062;28;20505;-77
2022/01/11 11:09:47;;;;;;;3.57;2.40;;;;;;;1.07;100.00;97884.44;5070346;28;20475;-77
2022/01/11 11:12:19;;;;;;;2.90;2.57;;;;;;;0.91;100.00;97859.06;5070487;28;20860;-77
2022/01/11 11:14:59;;;;;;;3.30;2.70;;;;;;;0.96;100.00;97843.56;5070709;28;20460;-77
2022/01/11 11:17:33;;;;;;;2.73;2.33;;;;;;;1.22;100.00;97878.78;5070973;28;20459;-77
2022/01/11 11:20:09;;;;;;;3.97;2.30;;;;;;;1.04;100.00;97852.84;5054688;28;20446;-77
2022/01/11 11:22:36;;;;;;;3.83;2.50;;;;;;;0.91;100.00;97834.84;5070825;28;20436;-77
2022/01/11 11:25:04;;;;;;;2.60;2.10;;;;;;;0.91;100.00;97834.84;5071947;28;20479;-77
2022/01/11 11:27:31;;;;;;;2.90;2.33;;;;;;;1.16;100.00;97882.28;5073809;28;20967;-77
2022/01/11 11:29:59;;;;;;;2.17;1.80;;;;;;;0.49;100.00;97788.09;5062281;28;20485;-76
2022/01/11 11:32:26;;;;;;;2.27;2.00;;;;;;;0.94;100.00;97843.00;5089932;28;20480;-76
2022/01/11 11:34:53;;;;;;;2.90;2.20;;;;;;;1.04;100.00;97865.84;5071610;28;20468;-76